Time;durP1;ratioP1;P1;durP2;ratioP2;P2;SDS_P1;SDS_P2;PMS_P1;PMS_P2;Temp;Humidity;BMP_temperature;BMP_pressure;BME280_temperature;BME280_humidity;BME280_pressure;Samples;Min_cycle;Max_cycle;Signal;HPM_P1;HPM_P2
2024/03/03 00:01:48;;;;;;;238.07;71.13;;;;;;;;;;4982765;28;20474;-44
2024/03/03 00:04:14;;;;;;;236.60;69.10;;;;;;;;;;4985444;28;20430;-45
2024/03/03 00:06:40;;;;;;;239.10;69.72;;;;;;;;;;4980410;28;20668;-44
2024/03/03 00:09:06;;;;;;;236.25;70.03;;;;;;;;;;4983953;28;20178;-44
2024/03/03 00:11:34;;;;;;;239.55;74.22;;;;;;;;;;4982226;28;20654;-45
2024/03/03 00:14:00;;;;;;;240.25;73.68;;;;;;;;;;4990148;28;20193;-45
2024/03/03 00:16:27;;;;;;;237.45;71.65;;;;;;;;;;4981837;28;20175;-46
2024/03/03 00:18:53;;;;;;;240.48;73.60;;;;;;;;;;4986692;28;20554;-45
2024/03/03 00:21:19;;;;;;;238.82;71.82;;;;;;;;;;4978596;28;20246;-45
2024/03/03 00:23:46;;;;;;;235.57;68.80;;;;;;;;;;4978497;28;20234;-45
2024/03/03 00:26:12;;;;;;;237.30;70.10;;;;;;;;;;4981793;28;20242;-45
2024/03/03 00:28:38;;;;;;;236.57;70.40;;;;;;;;;;4981785;28;20205;-45
2024/03/03 00:31:04;;;;;;;234.88;69.22;;;;;;;;;;4992747;28;20194;-45
2024/03/03 00:33:30;;;;;;;241.80;76.85;;;;;;;;;;4983387;28;20241;-45
2024/03/03 00:35:56;;;;;;;232.30;67.70;;;;;;;;;;4986417;28;20657;-44
2024/03/03 00:38:22;;;;;;;234.77;68.50;;;;;;;;;;4984865;28;20767;-45
2024/03/03 00:40:48;;;;;;;236.90;71.55;;;;;;;;;;4976276;28;20438;-45
2024/03/03 00:43:14;;;;;;;237.13;73.43;;;;;;;;;;4983960;28;20279;-44
2024/03/03 00:45:40;;;;;;;236.07;71.87;;;;;;;;;;4985031;28;20444;-44
2024/03/03 00:48:06;;;;;;;235.93;70.47;;;;;;;;;;4984114;28;20499;-45
2024/03/03 00:50:32;;;;;;;237.57;71.53;;;;;;;;;;4992644;28;20483;-45
2024/03/03 00:52:58;;;;;;;239.47;73.97;;;;;;;;;;4986321;28;20227;-44
2024/03/03 00:55:24;;;;;;;234.82;69.90;;;;;;;;;;4984601;28;20410;-44
2024/03/03 00:57:51;;;;;;;235.80;68.57;;;;;;;;;;4984596;28;20601;-45
2024/03/03 01:00:17;;;;;;;236.40;70.90;;;;;;;;;;4989476;28;20184;-44
2024/03/03 01:02:43;;;;;;;238.05;73.35;;;;;;;;;;4979655;28;20576;-44
2024/03/03 01:05:10;;;;;;;238.57;70.90;;;;;;;;;;4990595;28;20671;-45
2024/03/03 01:07:36;;;;;;;233.65;70.35;;;;;;;;;;4987995;28;20672;-45
2024/03/03 01:10:03;;;;;;;233.82;68.55;;;;;;;;;;4981806;28;20180;-45
2024/03/03 01:12:30;;;;;;;235.93;70.75;;;;;;;;;;4987120;28;20557;-45
2024/03/03 01:14:56;;;;;;;237.00;70.65;;;;;;;;;;4989565;28;20235;-45
2024/03/03 01:17:22;;;;;;;240.80;77.15;;;;;;;;;;4983421;28;20189;-44
2024/03/03 01:19:48;;;;;;;237.43;71.93;;;;;;;;;;4985978;28;20180;-45
2024/03/03 01:22:14;;;;;;;237.10;72.18;;;;;;;;;;4988252;28;20854;-44
2024/03/03 01:24:41;;;;;;;231.63;66.00;;;;;;;;;;4980833;28;20184;-44
2024/03/03 01:27:07;;;;;;;231.43;65.95;;;;;;;;;;4983681;28;20450;-45
2024/03/03 01:29:33;;;;;;;234.05;69.30;;;;;;;;;;4988961;28;20191;-45
2024/03/03 01:31:59;;;;;;;236.27;71.17;;;;;;;;;;4985148;28;20684;-44
2024/03/03 01:34:28;;;;;;;236.85;72.18;;;;;;;;;;4979846;28;20452;-44
2024/03/03 01:36:54;;;;;;;239.32;75.93;;;;;;;;;;4974565;28;20240;-45
2024/03/03 01:39:20;;;;;;;231.80;65.63;;;;;;;;;;4984175;28;20177;-44
2024/03/03 01:41:46;;;;;;;240.43;74.68;;;;;;;;;;4975798;28;20192;-44
2024/03/03 01:44:12;;;;;;;239.35;75.72;;;;;;;;;;4980296;28;20257;-45
2024/03/03 01:46:39;;;;;;;233.52;69.20;;;;;;;;;;4987526;28;20224;-45
2024/03/03 01:49:10;;;;;;;236.90;71.97;;;;;;;;;;4982548;28;20216;-45
2024/03/03 01:51:38;;;;;;;234.40;67.93;;;;;;;;;;4972435;28;20182;-44
2024/03/03 01:54:05;;;;;;;233.45;68.95;;;;;;;;;;4981671;28;20201;-44
2024/03/03 01:56:31;;;;;;;238.25;72.22;;;;;;;;;;4988518;28;20174;-44
2024/03/03 01:58:59;;;;;;;232.95;67.68;;;;;;;;;;4987177;28;20220;-44
2024/03/03 02:01:28;;;;;;;236.75;71.10;;;;;;;;;;4979472;28;20186;-45
2024/03/03 02:03:55;;;;;;;235.32;67.65;;;;;;;;;;4980149;28;20259;-44
2024/03/03 02:06:23;;;;;;;240.77;74.28;;;;;;;;;;4984429;28;20175;-44
2024/03/03 02:08:49;;;;;;;240.95;74.35;;;;;;;;;;4989009;28;20187;-44
2024/03/03 02:11:15;;;;;;;240.13;75.15;;;;;;;;;;4984084;28;20257;-45
2024/03/03 02:13:41;;;;;;;236.73;70.90;;;;;;;;;;4983252;28;20242;-44
2024/03/03 02:16:07;;;;;;;236.17;69.40;;;;;;;;;;4985082;28;20181;-44
2024/03/03 02:18:33;;;;;;;240.98;75.30;;;;;;;;;;4984642;28;20422;-45
2024/03/03 02:20:59;;;;;;;239.33;72.37;;;;;;;;;;4989021;28;20278;-44
2024/03/03 02:23:25;;;;;;;237.32;71.78;;;;;;;;;;4983191;28;20431;-44
2024/03/03 02:25:51;;;;;;;240.80;75.47;;;;;;;;;;4988620;28;20178;-45
2024/03/03 02:28:17;;;;;;;238.60;72.22;;;;;;;;;;4983390;28;20453;-45
2024/03/03 02:30:43;;;;;;;238.17;71.20;;;;;;;;;;4986011;28;20209;-45
2024/03/03 02:33:10;;;;;;;239.90;73.10;;;;;;;;;;4971643;28;20849;-45
2024/03/03 02:35:36;;;;;;;240.18;72.78;;;;;;;;;;4986900;28;20776;-45
2024/03/03 02:38:02;;;;;;;237.67;71.87;;;;;;;;;;4992302;28;20188;-45
2024/03/03 02:40:31;;;;;;;244.00;77.80;;;;;;;;;;4984713;28;20494;-45
2024/03/03 02:42:57;;;;;;;240.63;73.63;;;;;;;;;;4991814;28;20502;-45
2024/03/03 02:45:24;;;;;;;238.67;73.13;;;;;;;;;;4983693;28;20683;-45
2024/03/03 02:47:53;;;;;;;238.30;72.65;;;;;;;;;;4982868;28;20489;-45
2024/03/03 02:50:19;;;;;;;237.75;71.65;;;;;;;;;;4989168;28;20175;-45
2024/03/03 02:52:45;;;;;;;242.43;76.57;;;;;;;;;;4989423;28;20717;-45
2024/03/03 02:55:11;;;;;;;244.20;80.15;;;;;;;;;;4990169;28;20183;-45
2024/03/03 02:57:37;;;;;;;235.48;71.13;;;;;;;;;;4989782;28;20181;-45
2024/03/03 03:00:03;;;;;;;235.60;69.43;;;;;;;;;;4992137;28;20183;-45
2024/03/03 03:02:29;;;;;;;235.05;69.00;;;;;;;;;;4989320;28;20206;-45
2024/03/03 03:04:56;;;;;;;237.40;71.90;;;;;;;;;;4993416;28;20192;-46
2024/03/03 03:07:22;;;;;;;234.98;69.75;;;;;;;;;;4991942;28;20422;-46
2024/03/03 03:09:48;;;;;;;234.50;68.87;;;;;;;;;;4990156;28;20193;-44
2024/03/03 03:12:14;;;;;;;233.43;70.20;;;;;;;;;;4988745;28;20451;-45
2024/03/03 03:14:40;;;;;;;234.13;69.77;;;;;;;;;;4987409;28;20539;-45
2024/03/03 03:17:07;;;;;;;238.27;71.53;;;;;;;;;;4992729;28;20429;-45
2024/03/03 03:19:33;;;;;;;238.25;72.35;;;;;;;;;;4993295;28;20625;-45
2024/03/03 03:21:59;;;;;;;237.30;70.90;;;;;;;;;;4992938;28;20288;-45
2024/03/03 03:24:29;;;;;;;237.48;70.88;;;;;;;;;;4989970;28;20419;-45
2024/03/03 03:26:55;;;;;;;238.40;72.63;;;;;;;;;;4988190;28;20183;-45
2024/03/03 03:29:21;;;;;;;238.20;73.70;;;;;;;;;;4987042;28;20194;-46
2024/03/03 03:31:47;;;;;;;235.80;71.35;;;;;;;;;;4993313;28;20409;-45
2024/03/03 03:34:13;;;;;;;235.87;69.10;;;;;;;;;;4991533;28;20235;-46
2024/03/03 03:36:39;;;;;;;236.77;73.27;;;;;;;;;;4990223;28;20413;-45
2024/03/03 03:39:11;;;;;;;235.43;69.17;;;;;;;;;;4992799;28;20417;-45
2024/03/03 03:41:47;;;;;;;241.35;76.03;;;;;;;;;;4989221;28;20477;-45
2024/03/03 03:44:13;;;;;;;236.65;70.32;;;;;;;;;;4986535;28;20440;-44
2024/03/03 03:46:39;;;;;;;240.32;72.53;;;;;;;;;;4992531;28;20224;-45
2024/03/03 03:49:07;;;;;;;237.30;70.55;;;;;;;;;;4991370;28;20649;-45
2024/03/03 03:51:33;;;;;;;239.43;72.75;;;;;;;;;;4989681;28;20214;-45
2024/03/03 03:53:59;;;;;;;238.30;72.17;;;;;;;;;;4988011;28;20293;-45
2024/03/03 03:56:25;;;;;;;237.07;71.73;;;;;;;;;;4988605;28;20414;-45
2024/03/03 03:58:51;;;;;;;238.18;70.72;;;;;;;;;;4990365;28;20422;-45
2024/03/03 04:01:19;;;;;;;237.35;69.25;;;;;;;;;;4989594;28;20180;-45
2024/03/03 04:03:45;;;;;;;239.18;72.28;;;;;;;;;;4990987;28;20210;-45
2024/03/03 04:06:11;;;;;;;237.07;71.37;;;;;;;;;;4989439;28;20196;-45
2024/03/03 04:08:37;;;;;;;241.17;73.40;;;;;;;;;;4987700;28;20905;-45
2024/03/03 04:11:03;;;;;;;237.57;70.97;;;;;;;;;;4986315;28;20495;-45
2024/03/03 04:13:29;;;;;;;236.65;69.53;;;;;;;;;;4992641;28;20501;-45
2024/03/03 04:15:55;;;;;;;238.83;71.53;;;;;;;;;;4990863;28;20588;-45
2024/03/03 04:18:21;;;;;;;239.93;71.57;;;;;;;;;;4992211;28;20420;-45
2024/03/03 04:20:47;;;;;;;238.27;71.10;;;;;;;;;;4990323;28;20455;-45
2024/03/03 04:23:13;;;;;;;236.97;69.27;;;;;;;;;;4987468;28;20255;-45
2024/03/03 04:25:39;;;;;;;240.33;70.07;;;;;;;;;;4985803;28;20426;-45
2024/03/03 04:28:10;;;;;;;238.63;70.80;;;;;;;;;;4992185;28;20508;-45
2024/03/03 04:30:36;;;;;;;237.73;71.80;;;;;;;;;;4989643;28;20773;-45
2024/03/03 04:33:02;;;;;;;237.70;70.03;;;;;;;;;;4988932;28;20222;-45
2024/03/03 04:35:28;;;;;;;237.55;72.47;;;;;;;;;;4989865;28;20785;-45
2024/03/03 04:37:54;;;;;;;242.18;76.97;;;;;;;;;;4990707;28;20173;-45
2024/03/03 04:40:21;;;;;;;237.13;71.27;;;;;;;;;;4986937;28;20629;-45
2024/03/03 04:42:47;;;;;;;239.48;71.20;;;;;;;;;;4992265;28;20792;-45
2024/03/03 04:45:14;;;;;;;240.77;73.50;;;;;;;;;;4990777;28;20212;-45
2024/03/03 04:47:40;;;;;;;238.27;71.07;;;;;;;;;;4987546;28;20181;-45
2024/03/03 04:50:07;;;;;;;237.57;70.53;;;;;;;;;;4986956;28;20187;-45
2024/03/03 04:52:37;;;;;;;238.02;71.88;;;;;;;;;;4985896;28;20717;-45
2024/03/03 04:55:03;;;;;;;237.45;69.88;;;;;;;;;;4991769;28;20207;-45
2024/03/03 04:57:30;;;;;;;236.50;69.93;;;;;;;;;;4992871;28;20195;-45
2024/03/03 04:59:56;;;;;;;238.15;72.07;;;;;;;;;;4992764;28;20196;-45
2024/03/03 05:02:22;;;;;;;237.67;69.30;;;;;;;;;;4992401;28;20766;-45
2024/03/03 05:04:48;;;;;;;236.60;68.60;;;;;;;;;;4992462;28;20419;-44
2024/03/03 05:07:14;;;;;;;234.63;66.65;;;;;;;;;;4992428;28;20205;-44
2024/03/03 05:09:40;;;;;;;234.33;69.03;;;;;;;;;;4992635;28;20204;-45
2024/03/03 05:12:07;;;;;;;236.10;68.63;;;;;;;;;;4992392;28;20482;-45
2024/03/03 05:14:33;;;;;;;236.35;70.40;;;;;;;;;;4992583;28;20452;-44
2024/03/03 05:16:59;;;;;;;237.07;69.28;;;;;;;;;;4992129;28;20235;-44
2024/03/03 05:19:25;;;;;;;235.63;69.05;;;;;;;;;;4984528;28;20532;-44
2024/03/03 05:21:54;;;;;;;236.87;69.67;;;;;;;;;;4984718;28;20180;-44
2024/03/03 05:24:21;;;;;;;236.10;69.00;;;;;;;;;;4992495;28;20698;-44
2024/03/03 05:26:47;;;;;;;235.75;68.88;;;;;;;;;;4983878;28;20185;-44
2024/03/03 05:29:13;;;;;;;236.85;70.20;;;;;;;;;;4980268;28;20178;-44
2024/03/03 05:31:43;;;;;;;236.05;69.10;;;;;;;;;;4988245;28;20680;-44
2024/03/03 05:34:13;;;;;;;233.50;66.82;;;;;;;;;;4988755;28;20708;-44
2024/03/03 05:36:40;;;;;;;235.43;67.95;;;;;;;;;;4972481;28;20251;-44
2024/03/03 05:39:06;;;;;;;235.80;66.95;;;;;;;;;;4991709;28;20328;-44
2024/03/03 05:41:32;;;;;;;235.87;70.17;;;;;;;;;;4985673;28;20261;-44
2024/03/03 05:43:59;;;;;;;238.15;70.22;;;;;;;;;;4990537;28;20931;-45
2024/03/03 05:46:24;;;;;;;237.27;70.35;;;;;;;;;;4991824;28;20180;-44
2024/03/03 05:48:50;;;;;;;237.17;69.97;;;;;;;;;;4992057;28;20173;-44
2024/03/03 05:51:17;;;;;;;234.50;67.90;;;;;;;;;;4991919;28;20416;-44
2024/03/03 05:53:43;;;;;;;235.65;68.82;;;;;;;;;;4983768;28;20479;-44
2024/03/03 05:56:12;;;;;;;235.65;68.60;;;;;;;;;;4975534;28;20181;-44
2024/03/03 05:58:38;;;;;;;235.98;69.53;;;;;;;;;;4991649;28;20173;-44
2024/03/03 06:01:04;;;;;;;236.97;68.83;;;;;;;;;;4989250;28;20252;-44
2024/03/03 06:03:30;;;;;;;235.80;69.85;;;;;;;;;;4977920;28;20432;-45
2024/03/03 06:05:56;;;;;;;234.67;67.20;;;;;;;;;;4988541;28;20177;-44
2024/03/03 06:08:22;;;;;;;235.60;69.30;;;;;;;;;;4977331;28;20503;-44
2024/03/03 06:10:48;;;;;;;236.77;70.37;;;;;;;;;;4983459;28;20478;-44
2024/03/03 06:13:15;;;;;;;236.03;68.57;;;;;;;;;;4983605;28;20558;-44
2024/03/03 06:15:41;;;;;;;234.88;68.38;;;;;;;;;;4991360;28;20412;-44
2024/03/03 06:18:07;;;;;;;234.80;67.50;;;;;;;;;;4983422;28;20180;-44
2024/03/03 06:20:33;;;;;;;232.67;67.20;;;;;;;;;;4991559;28;20415;-45
2024/03/03 06:22:59;;;;;;;236.00;71.55;;;;;;;;;;4983234;28;20424;-44
2024/03/03 06:25:25;;;;;;;235.47;69.00;;;;;;;;;;4991248;28;20182;-44
2024/03/03 06:27:50;;;;;;;236.30;66.93;;;;;;;;;;4975389;28;20444;-44
2024/03/03 06:30:18;;;;;;;234.20;67.47;;;;;;;;;;4982510;28;20423;-44
2024/03/03 06:32:43;;;;;;;233.88;66.88;;;;;;;;;;4983391;28;20706;-45
2024/03/03 06:35:10;;;;;;;236.93;71.10;;;;;;;;;;4987735;28;20209;-45
2024/03/03 06:37:36;;;;;;;234.40;66.97;;;;;;;;;;4986937;28;20495;-45
2024/03/03 06:40:03;;;;;;;234.10;66.85;;;;;;;;;;4991141;28;20658;-44
2024/03/03 06:42:35;;;;;;;233.45;67.82;;;;;;;;;;4991448;28;20584;-44
2024/03/03 06:45:01;;;;;;;241.30;73.50;;;;;;;;;;4983247;28;20191;-44
2024/03/03 06:47:32;;;;;;;235.37;68.03;;;;;;;;;;4990144;28;20190;-44
2024/03/03 06:49:58;;;;;;;234.43;68.28;;;;;;;;;;4983375;28;20499;-44
2024/03/03 06:52:24;;;;;;;230.90;65.22;;;;;;;;;;4991070;28;20215;-45
2024/03/03 06:54:50;;;;;;;234.85;71.07;;;;;;;;;;4990885;28;20214;-44
2024/03/03 06:57:16;;;;;;;233.10;69.00;;;;;;;;;;4991024;28;20181;-44
2024/03/03 06:59:42;;;;;;;229.93;65.50;;;;;;;;;;4983378;28;20173;-45
2024/03/03 07:02:08;;;;;;;229.70;64.97;;;;;;;;;;4979825;28;20198;-44
2024/03/03 07:04:34;;;;;;;231.40;67.80;;;;;;;;;;4984758;28;20599;-44
2024/03/03 07:07:00;;;;;;;232.37;68.57;;;;;;;;;;4974792;28;20181;-44
2024/03/03 07:09:26;;;;;;;231.67;67.13;;;;;;;;;;4982739;28;20444;-44
2024/03/03 07:11:55;;;;;;;234.17;69.80;;;;;;;;;;4990364;28;20790;-44
2024/03/03 07:14:22;;;;;;;229.45;65.95;;;;;;;;;;4990450;28;20455;-44
2024/03/03 07:16:49;;;;;;;230.68;66.07;;;;;;;;;;4993498;28;20169;-44
2024/03/03 07:19:16;;;;;;;232.52;70.85;;;;;;;;;;4986688;28;20184;-44
2024/03/03 07:21:45;;;;;;;234.48;69.03;;;;;;;;;;4994513;28;20177;-45
2024/03/03 07:24:11;;;;;;;233.57;69.32;;;;;;;;;;4994642;28;20195;-45
2024/03/03 07:26:37;;;;;;;238.00;74.07;;;;;;;;;;4994209;28;20265;-44
2024/03/03 07:29:03;;;;;;;234.20;68.65;;;;;;;;;;4986338;28;20419;-45
2024/03/03 07:31:30;;;;;;;236.53;75.17;;;;;;;;;;4988468;28;20183;-45
2024/03/03 07:33:56;;;;;;;237.32;75.15;;;;;;;;;;4992695;28;20520;-45
2024/03/03 07:36:22;;;;;;;232.65;69.30;;;;;;;;;;4994109;28;20174;-45
2024/03/03 07:38:50;;;;;;;239.15;76.15;;;;;;;;;;4994230;28;20656;-45
2024/03/03 07:41:16;;;;;;;237.95;74.93;;;;;;;;;;4994235;28;20173;-44
2024/03/03 07:43:42;;;;;;;235.33;72.87;;;;;;;;;;4994299;28;20210;-44
2024/03/03 07:46:08;;;;;;;236.13;72.50;;;;;;;;;;4985930;28;20410;-44
2024/03/03 07:48:37;;;;;;;238.43;77.00;;;;;;;;;;4994085;28;20671;-45
2024/03/03 07:51:03;;;;;;;239.93;77.70;;;;;;;;;;4993824;28;20411;-44
2024/03/03 07:53:29;;;;;;;234.35;71.22;;;;;;;;;;4993897;28;20241;-44
2024/03/03 07:55:55;;;;;;;234.77;68.57;;;;;;;;;;4993925;28;20173;-44
2024/03/03 07:58:21;;;;;;;236.93;73.57;;;;;;;;;;4994019;28;20569;-45
2024/03/03 08:00:47;;;;;;;235.77;70.07;;;;;;;;;;4993882;28;20410;-44
2024/03/03 08:03:13;;;;;;;236.30;72.93;;;;;;;;;;4993815;28;20504;-44
2024/03/03 08:05:40;;;;;;;233.15;70.25;;;;;;;;;;4991383;28;20409;-44
2024/03/03 08:08:06;;;;;;;243.68;79.15;;;;;;;;;;4973561;28;20175;-44
2024/03/03 08:10:32;;;;;;;234.48;72.47;;;;;;;;;;4975353;28;20166;-45
2024/03/03 08:12:59;;;;;;;233.98;71.95;;;;;;;;;;4991923;28;20256;-45
2024/03/03 08:15:25;;;;;;;235.18;72.90;;;;;;;;;;4984994;28;20211;-44
2024/03/03 08:17:52;;;;;;;233.50;70.97;;;;;;;;;;4989252;28;20672;-44
2024/03/03 08:20:19;;;;;;;231.75;69.32;;;;;;;;;;4983540;28;21056;-45
2024/03/03 08:22:45;;;;;;;232.25;67.70;;;;;;;;;;4975429;28;20201;-44
2024/03/03 08:25:19;;;;;;;241.57;79.97;;;;;;;;;;4992886;28;20238;-44
2024/03/03 08:27:46;;;;;;;236.52;74.90;;;;;;;;;;4986003;28;20438;-44
2024/03/03 08:30:12;;;;;;;234.95;70.78;;;;;;;;;;4985706;28;20660;-45
2024/03/03 08:32:41;;;;;;;239.03;77.27;;;;;;;;;;4989673;28;20212;-44
2024/03/03 08:35:07;;;;;;;239.50;73.57;;;;;;;;;;4987817;28;20530;-45
2024/03/03 08:37:34;;;;;;;237.48;73.65;;;;;;;;;;4978542;28;20238;-44
2024/03/03 08:40:00;;;;;;;242.07;81.85;;;;;;;;;;4991895;28;20180;-45
2024/03/03 08:42:26;;;;;;;241.55;80.28;;;;;;;;;;4991375;28;20222;-45
2024/03/03 08:44:52;;;;;;;238.93;73.73;;;;;;;;;;4989622;28;20240;-45
2024/03/03 08:47:18;;;;;;;242.55;79.82;;;;;;;;;;4979965;28;20944;-45
2024/03/03 08:49:44;;;;;;;238.80;76.30;;;;;;;;;;4981551;28;20181;-45
2024/03/03 08:52:10;;;;;;;242.50;79.35;;;;;;;;;;4986106;28;20815;-45
2024/03/03 08:54:37;;;;;;;236.07;73.03;;;;;;;;;;4993439;28;20287;-45
2024/03/03 08:57:03;;;;;;;245.68;83.68;;;;;;;;;;4981349;28;20920;-45
2024/03/03 08:59:29;;;;;;;244.50;83.13;;;;;;;;;;4987106;28;20191;-45
2024/03/03 09:01:55;;;;;;;242.20;79.03;;;;;;;;;;4987457;28;20185;-44
2024/03/03 09:04:21;;;;;;;242.07;79.77;;;;;;;;;;4988424;28;20444;-45
2024/03/03 09:06:47;;;;;;;242.00;79.70;;;;;;;;;;4989422;28;20488;-45
2024/03/03 09:09:16;;;;;;;243.67;82.13;;;;;;;;;;4992526;28;20501;-45
2024/03/03 09:11:43;;;;;;;242.38;81.43;;;;;;;;;;4990671;28;20454;-45
2024/03/03 09:14:09;;;;;;;249.33;93.37;;;;;;;;;;4991892;28;20220;-46
2024/03/03 09:16:35;;;;;;;246.83;86.70;;;;;;;;;;4992294;28;20476;-45
2024/03/03 09:19:01;;;;;;;248.47;88.10;;;;;;;;;;4992012;28;20456;-45
2024/03/03 09:21:27;;;;;;;245.20;82.17;;;;;;;;;;4992493;28;20412;-45
2024/03/03 09:23:53;;;;;;;245.17;83.63;;;;;;;;;;4992324;28;20490;-46
2024/03/03 09:26:19;;;;;;;250.00;88.70;;;;;;;;;;4992130;28;20490;-46
2024/03/03 09:28:45;;;;;;;246.30;85.53;;;;;;;;;;4991954;28;20416;-45
2024/03/03 09:31:11;;;;;;;244.07;80.57;;;;;;;;;;4992163;28;20494;-45
2024/03/03 09:33:38;;;;;;;248.37;85.47;;;;;;;;;;4992130;28;20977;-45
2024/03/03 09:36:05;;;;;;;255.87;97.00;;;;;;;;;;4991121;28;20458;-46
2024/03/03 09:38:31;;;;;;;255.17;89.80;;;;;;;;;;4989613;28;20449;-46
2024/03/03 09:40:57;;;;;;;259.63;96.83;;;;;;;;;;4989825;28;20420;-46
2024/03/03 09:43:28;;;;;;;252.20;91.47;;;;;;;;;;4989912;28;20435;-46
2024/03/03 09:45:54;;;;;;;255.67;95.17;;;;;;;;;;4972609;28;20421;-45
2024/03/03 09:48:21;;;;;;;249.20;85.50;;;;;;;;;;4974730;28;20419;-45
2024/03/03 09:50:49;;;;;;;249.83;90.00;;;;;;;;;;4974555;28;20431;-45
2024/03/03 09:53:15;;;;;;;246.00;85.40;;;;;;;;;;4973744;28;20979;-45
2024/03/03 09:55:43;;;;;;;247.03;86.23;;;;;;;;;;4974719;28;20428;-45
2024/03/03 09:58:09;;;;;;;249.73;90.17;;;;;;;;;;4987056;28;20499;-46
2024/03/03 10:00:35;;;;;;;246.60;86.47;;;;;;;;;;4980322;28;20495;-45
2024/03/03 10:03:02;;;;;;;250.60;89.93;;;;;;;;;;4976414;28;20447;-45
2024/03/03 10:05:32;;;;;;;250.60;91.43;;;;;;;;;;4983227;28;20829;-46
2024/03/03 10:08:01;;;;;;;256.40;102.03;;;;;;;;;;4991452;28;20967;-46
2024/03/03 10:10:31;;;;;;;256.97;105.50;;;;;;;;;;4991603;28;20511;-45
2024/03/03 10:13:01;;;;;;;257.93;102.73;;;;;;;;;;4984514;28;21015;-46
2024/03/03 10:15:28;;;;;;;252.70;97.20;;;;;;;;;;4974664;28;20785;-46
2024/03/03 10:17:54;;;;;;;259.93;105.03;;;;;;;;;;4991325;28;20956;-46
2024/03/03 10:20:20;;;;;;;260.57;105.03;;;;;;;;;;4991472;28;20487;-46
2024/03/03 10:22:46;;;;;;;257.13;98.60;;;;;;;;;;4991274;28;20865;-46
2024/03/03 10:25:16;;;;;;;261.17;106.07;;;;;;;;;;4991141;28;20432;-45
2024/03/03 10:27:44;;;;;;;257.77;102.80;;;;;;;;;;4991413;28;20494;-45
2024/03/03 10:30:12;;;;;;;255.50;98.13;;;;;;;;;;4991666;28;20846;-46
2024/03/03 10:32:38;;;;;;;257.90;99.33;;;;;;;;;;4991458;28;20442;-45
2024/03/03 10:35:04;;;;;;;259.67;102.03;;;;;;;;;;4991259;28;20462;-45
2024/03/03 10:37:33;;;;;;;254.90;96.67;;;;;;;;;;4991239;28;20418;-46
2024/03/03 10:40:01;;;;;;;254.97;99.93;;;;;;;;;;4991573;28;20515;-46
2024/03/03 10:42:27;;;;;;;252.83;97.23;;;;;;;;;;4991239;28;20487;-46
2024/03/03 10:44:53;;;;;;;256.07;101.87;;;;;;;;;;4991194;28;20804;-45
2024/03/03 10:47:19;;;;;;;256.97;105.17;;;;;;;;;;4989186;28;20412;-46
2024/03/03 10:49:46;;;;;;;256.43;105.37;;;;;;;;;;4991440;28;20415;-46
2024/03/03 10:52:14;;;;;;;261.47;114.87;;;;;;;;;;4994948;28;20451;-46
2024/03/03 10:54:41;;;;;;;264.77;118.40;;;;;;;;;;4991284;28;20472;-46
2024/03/03 10:57:09;;;;;;;255.73;106.80;;;;;;;;;;4976975;28;20427;-46
2024/03/03 10:59:35;;;;;;;266.23;122.47;;;;;;;;;;4984578;28;20417;-46
2024/03/03 11:02:03;;;;;;;261.97;116.00;;;;;;;;;;4981920;28;20455;-45
2024/03/03 11:04:31;;;;;;;259.50;113.77;;;;;;;;;;4989483;28;20499;-45
2024/03/03 11:07:03;;;;;;;261.17;114.43;;;;;;;;;;4987401;28;20412;-46
2024/03/03 11:09:30;;;;;;;259.40;114.97;;;;;;;;;;4994115;28;20954;-46
2024/03/03 11:12:00;;;;;;;257.30;111.83;;;;;;;;;;4992757;28;20442;-46
2024/03/03 11:14:47;;;;;;;257.43;117.17;;;;;;;;;;4991250;28;20464;-46
2024/03/03 11:17:19;;;;;;;257.30;113.80;;;;;;;;;;4989751;28;20435;-47
2024/03/03 11:19:49;;;;;;;259.80;117.40;;;;;;;;;;4985867;28;20757;-46
2024/03/03 11:22:20;;;;;;;256.17;113.57;;;;;;;;;;4994340;28;20427;-45
2024/03/03 11:24:53;;;;;;;256.40;112.47;;;;;;;;;;4992558;28;20899;-45
2024/03/03 11:27:22;;;;;;;256.60;110.10;;;;;;;;;;4994186;28;20414;-45
2024/03/03 11:29:49;;;;;;;259.47;119.70;;;;;;;;;;4988466;28;20474;-45
2024/03/03 11:32:16;;;;;;;256.13;111.50;;;;;;;;;;4989197;28;20439;-45
2024/03/03 11:34:44;;;;;;;258.23;114.80;;;;;;;;;;4987706;28;20471;-45
2024/03/03 11:37:12;;;;;;;260.30;118.77;;;;;;;;;;4981090;28;20427;-45
2024/03/03 11:39:49;;;;;;;261.00;119.17;;;;;;;;;;4988950;28;20948;-46
2024/03/03 11:42:22;;;;;;;265.97;124.47;;;;;;;;;;4989476;28;20444;-45
2024/03/03 11:44:49;;;;;;;260.90;118.73;;;;;;;;;;4987204;28;20508;-45
2024/03/03 11:47:15;;;;;;;284.43;130.13;;;;;;;;;;4975316;28;21003;-46
2024/03/03 11:49:42;;;;;;;264.67;118.83;;;;;;;;;;4978090;28;20504;-46
2024/03/03 11:52:08;;;;;;;259.13;112.10;;;;;;;;;;4986196;28;20504;-45
2024/03/03 11:54:38;;;;;;;258.93;116.67;;;;;;;;;;4989898;28;20456;-45
2024/03/03 11:57:09;;;;;;;260.53;114.73;;;;;;;;;;4990147;28;20426;-46
2024/03/03 11:59:39;;;;;;;257.30;114.80;;;;;;;;;;4989134;28;20436;-46
2024/03/03 12:02:08;;;;;;;256.80;116.97;;;;;;;;;;4986835;28;21010;-45
2024/03/03 12:04:35;;;;;;;259.57;122.43;;;;;;;;;;4987311;28;20448;-46
2024/03/03 12:07:06;;;;;;;257.00;115.27;;;;;;;;;;4990722;28;20424;-46
2024/03/03 12:09:32;;;;;;;259.53;117.07;;;;;;;;;;4992098;28;20487;-45
2024/03/03 12:11:59;;;;;;;261.07;123.10;;;;;;;;;;4989921;28;20468;-45
2024/03/03 12:14:25;;;;;;;257.53;114.63;;;;;;;;;;4987087;28;20467;-45
2024/03/03 12:16:52;;;;;;;262.07;120.00;;;;;;;;;;4984667;28;20416;-45
2024/03/03 12:19:20;;;;;;;260.37;120.30;;;;;;;;;;4984455;28;20423;-46
2024/03/03 12:21:45;;;;;;;266.10;125.10;;;;;;;;;;4989721;28;20416;-46
2024/03/03 12:24:15;;;;;;;258.77;113.57;;;;;;;;;;4989321;28;20511;-45
2024/03/03 12:26:41;;;;;;;258.00;109.53;;;;;;;;;;4986949;28;20491;-46
2024/03/03 12:29:08;;;;;;;258.10;112.17;;;;;;;;;;4987784;28;21137;-45
2024/03/03 12:31:34;;;;;;;263.37;124.03;;;;;;;;;;4987596;28;20420;-45
2024/03/03 12:34:00;;;;;;;260.17;123.37;;;;;;;;;;4983014;28;20468;-46
2024/03/03 12:36:27;;;;;;;257.10;115.57;;;;;;;;;;4990451;28;20526;-45
2024/03/03 12:38:53;;;;;;;259.17;122.13;;;;;;;;;;4988062;28;20416;-46
2024/03/03 12:41:19;;;;;;;257.10;116.27;;;;;;;;;;4987536;28;20923;-45
2024/03/03 12:43:45;;;;;;;257.47;114.27;;;;;;;;;;4991029;28;21019;-45
2024/03/03 12:46:11;;;;;;;259.07;119.30;;;;;;;;;;4993007;28;20440;-45
2024/03/03 12:48:37;;;;;;;256.33;113.23;;;;;;;;;;4993351;28;20499;-45
2024/03/03 12:51:04;;;;;;;259.67;116.80;;;;;;;;;;4986161;28;20421;-46
2024/03/03 12:53:30;;;;;;;260.40;118.40;;;;;;;;;;4992922;28;20534;-45
2024/03/03 12:55:56;;;;;;;259.80;121.00;;;;;;;;;;4992799;28;20442;-46
2024/03/03 12:58:22;;;;;;;258.00;115.50;;;;;;;;;;4992929;28;20447;-45
2024/03/03 13:00:49;;;;;;;263.57;130.10;;;;;;;;;;4992856;28;20416;-46
2024/03/03 13:03:17;;;;;;;259.83;118.67;;;;;;;;;;4992748;28;20432;-45
2024/03/03 13:05:43;;;;;;;260.67;124.70;;;;;;;;;;4992510;28;20881;-45
2024/03/03 13:08:11;;;;;;;262.50;120.90;;;;;;;;;;4992626;28;20421;-46
2024/03/03 13:10:37;;;;;;;256.57;110.57;;;;;;;;;;4992932;28;21042;-45
2024/03/03 13:13:03;;;;;;;257.10;113.63;;;;;;;;;;4991916;28;20940;-46
2024/03/03 13:15:29;;;;;;;264.20;127.83;;;;;;;;;;4992381;28;20459;-45
2024/03/03 13:18:03;;;;;;;266.90;133.93;;;;;;;;;;4992358;28;20405;-45
2024/03/03 13:20:29;;;;;;;258.00;122.53;;;;;;;;;;4986276;28;20491;-45
2024/03/03 13:23:14;;;;;;;256.23;118.27;;;;;;;;;;4986195;28;20638;-46
2024/03/03 13:25:41;;;;;;;257.60;121.43;;;;;;;;;;4980958;28;20416;-45
2024/03/03 13:28:11;;;;;;;257.33;122.00;;;;;;;;;;4986796;28;20447;-46
2024/03/03 13:30:37;;;;;;;255.33;114.90;;;;;;;;;;4986023;28;20413;-45
2024/03/03 13:33:03;;;;;;;259.30;126.60;;;;;;;;;;4985292;28;20536;-46
2024/03/03 13:35:31;;;;;;;260.87;127.37;;;;;;;;;;4984686;28;20466;-46
2024/03/03 13:37:57;;;;;;;258.33;119.13;;;;;;;;;;4990544;28;20439;-46
2024/03/03 13:40:23;;;;;;;264.23;129.63;;;;;;;;;;4984091;28;20416;-45
2024/03/03 13:42:49;;;;;;;256.83;111.90;;;;;;;;;;4990727;28;20458;-45
2024/03/03 13:45:15;;;;;;;262.07;124.10;;;;;;;;;;4984318;28;20428;-45
2024/03/03 13:47:41;;;;;;;267.23;129.20;;;;;;;;;;4983716;28;20517;-46
2024/03/03 13:50:09;;;;;;;268.53;132.90;;;;;;;;;;4962741;28;20909;-46
2024/03/03 13:52:35;;;;;;;257.17;118.70;;;;;;;;;;4975258;28;20987;-45
2024/03/03 13:55:01;;;;;;;260.20;121.70;;;;;;;;;;4989346;28;20474;-44
2024/03/03 13:57:27;;;;;;;255.97;112.37;;;;;;;;;;4991814;28;20896;-45
2024/03/03 13:59:53;;;;;;;256.30;111.40;;;;;;;;;;4992084;28;20491;-45